In Rescue
 
Open Full Screen Window  High Contrast Mode
Wind Gusting 16 knots
13
November 29, 2022 9:34 AM CST
Weather Information
Wind Direction
  200 °
Wind Speed
  13 kt (15 mph)
Wind Gust
  16 kt (18 mph)
Altimeter
29.62 in
Visibility
10 SM
Temperature
-09° C
16° F
Dewpoint
-12° C
10° F
Humidity
79%
1hr Rain Fall
00.00 in.
24hr Rain Fall
00.00 in.
Sky Condition
Clear
VFR

METAR KROX 291534Z AUTO 20013G16KT 10SM CLR M09/M12 A2962 RMK AO2

FAA Disclaimer: The data displayed is for advisory purposes only and is not to be used for flight planning or operations.